createdAt,value
2017-07-05T00:01:03.799Z,17.38
2017-07-05T00:10:59.839Z,17.23
2017-07-05T00:20:59.943Z,17.14
2017-07-05T00:30:59.860Z,16.9
2017-07-05T00:40:59.820Z,16.73
2017-07-05T00:50:59.902Z,16.48
2017-07-05T01:00:59.882Z,16.09
2017-07-05T01:10:59.877Z,15.93
2017-07-05T01:20:59.866Z,15.76
2017-07-05T01:30:59.879Z,15.6
2017-07-05T01:40:59.908Z,15.7
2017-07-05T01:50:59.964Z,15.61
2017-07-05T02:00:59.979Z,15.41
2017-07-05T02:11:00.017Z,15.02
2017-07-05T02:20:59.932Z,14.83
2017-07-05T02:31:00.010Z,14.68
2017-07-05T02:40:59.980Z,14.46
2017-07-05T02:51:00.081Z,14.42
2017-07-05T03:01:00.116Z,14.21
2017-07-05T03:10:59.962Z,14.29
2017-07-05T03:20:59.988Z,14.39
2017-07-05T03:31:00.030Z,14.62
2017-07-05T03:40:59.991Z,14.84
2017-07-05T03:51:00.107Z,14.91
2017-07-05T04:01:00.066Z,14.72
2017-07-05T04:11:00.040Z,14.81
2017-07-05T04:21:00.055Z,15.03
2017-07-05T04:31:00.042Z,15.09
2017-07-05T04:41:00.132Z,15.08
2017-07-05T04:51:00.090Z,15.74
2017-07-05T05:01:00.152Z,16.33
2017-07-05T05:11:00.097Z,17.18
2017-07-05T05:21:00.158Z,17.53
2017-07-05T05:31:00.262Z,18.06
2017-07-05T05:41:00.241Z,18.42
2017-07-05T05:51:03.071Z,18.97
2017-07-05T06:01:00.142Z,21.05
2017-07-05T06:11:00.145Z,25.59
2017-07-05T06:21:00.558Z,28.1
2017-07-05T06:31:00.128Z,29.13
2017-07-05T06:41:00.154Z,30.21
2017-07-05T06:51:00.192Z,31.92
2017-07-05T07:01:00.202Z,32.47
2017-07-05T07:11:00.157Z,33.65
2017-07-05T07:21:00.218Z,34.26
2017-07-05T07:31:00.351Z,35.03
2017-07-05T07:41:00.163Z,35.13
2017-07-05T07:51:00.164Z,35.99
2017-07-05T08:01:00.147Z,36.61
2017-07-05T08:11:00.170Z,36.73
2017-07-05T08:21:00.209Z,37.39
2017-07-05T08:31:00.521Z,37.64
2017-07-05T08:41:00.322Z,37.61
2017-07-05T08:51:00.198Z,37.76
2017-07-05T09:01:00.226Z,38.1
2017-07-05T09:11:00.250Z,36.83
2017-07-05T09:21:00.318Z,32.81
2017-07-05T09:31:00.210Z,30.94
2017-07-05T09:41:00.236Z,29.35
2017-07-05T09:51:00.236Z,28.68
2017-07-05T10:01:00.189Z,28.33
2017-07-05T10:11:00.309Z,28.58
2017-07-05T10:21:00.304Z,28.81
2017-07-05T10:31:00.228Z,28.9
2017-07-05T10:41:00.210Z,28.4
2017-07-05T10:51:00.187Z,28.6
2017-07-05T11:01:00.256Z,28.04
2017-07-05T11:11:00.265Z,28.66
2017-07-05T11:21:00.213Z,28.56
2017-07-05T11:31:00.210Z,28.23
2017-07-05T11:41:00.833Z,28.62
2017-07-05T11:51:00.236Z,28.69
2017-07-05T12:01:00.471Z,28.29
2017-07-05T12:11:06.492Z,28.1
2017-07-05T12:21:00.268Z,27.86
2017-07-05T12:31:00.408Z,28.51
2017-07-05T12:41:00.297Z,29.38
2017-07-05T12:51:00.279Z,28.93
2017-07-05T13:01:00.345Z,29.28
2017-07-05T13:11:00.861Z,29.38
2017-07-05T13:21:00.459Z,29.78
2017-07-05T13:31:00.483Z,29.33
2017-07-05T13:41:13.474Z,29.1
2017-07-05T13:51:00.590Z,29.16
2017-07-05T14:01:00.337Z,28.95
2017-07-05T14:11:00.394Z,29.1
2017-07-05T14:21:00.383Z,29.19
2017-07-05T14:31:00.265Z,28.95
2017-07-05T14:41:00.319Z,29.1
2017-07-05T14:51:00.345Z,29.03
2017-07-05T15:01:00.356Z,29.04
2017-07-05T15:11:00.383Z,28.35
2017-07-05T15:22:28.973Z,28.41
2017-07-05T15:32:28.876Z,28.28
2017-07-05T15:42:28.854Z,28.43
2017-07-05T15:52:28.931Z,28.53
2017-07-05T16:02:28.871Z,28.13
2017-07-05T16:12:28.864Z,27.38
2017-07-05T16:22:28.906Z,27.31
2017-07-05T16:32:28.958Z,27.43
2017-07-05T16:42:29.097Z,26.77
2017-07-05T16:52:28.897Z,26.4
2017-07-05T17:02:28.906Z,26.17
2017-07-05T17:12:28.983Z,26.05
2017-07-05T17:22:29.122Z,25.62
2017-07-05T17:32:28.955Z,25.46
2017-07-05T17:42:28.894Z,25.53
2017-07-05T17:52:28.926Z,25.16
2017-07-05T18:02:28.995Z,24.97
2017-07-05T18:12:28.982Z,24.69
2017-07-05T18:22:28.889Z,24.64
2017-07-05T18:32:28.953Z,24.47
2017-07-05T18:42:28.994Z,24.32
2017-07-05T18:52:28.896Z,24.07
2017-07-05T19:02:28.952Z,23.77
2017-07-05T19:12:28.916Z,23.11
2017-07-05T19:22:28.912Z,22.84
2017-07-05T19:32:28.926Z,22.57
2017-07-05T19:42:29.242Z,22.39
2017-07-05T19:52:28.944Z,22.06
2017-07-05T20:02:28.974Z,21.66
2017-07-05T20:12:35.988Z,21.54
2017-07-05T20:22:31.756Z,21.39
2017-07-05T20:32:29.073Z,21.06
2017-07-05T20:42:29.390Z,20.84
2017-07-05T20:52:30.261Z,20.72
2017-07-05T21:02:29.024Z,20.46
2017-07-05T21:12:29.267Z,20.08
2017-07-05T21:22:29.005Z,19.55
2017-07-05T21:32:29.217Z,19.2
2017-07-05T21:42:29.135Z,18.76
2017-07-05T21:52:29.167Z,18.62
2017-07-05T22:02:29.044Z,18.54
2017-07-05T22:12:29.191Z,18.43
2017-07-05T22:22:29.117Z,18.37
2017-07-05T22:32:28.998Z,18.24
2017-07-05T22:42:28.992Z,18.25
2017-07-05T22:52:28.934Z,18.46
2017-07-05T23:02:29.001Z,18.33
2017-07-05T23:12:28.973Z,18.37
2017-07-05T23:22:29.040Z,18.61
2017-07-05T23:32:29.008Z,18.61
2017-07-05T23:42:29.093Z,18.55
2017-07-05T23:52:29.354Z,18.43
